createdAt,value
2022-09-03T00:00:19.208Z,52.32
2022-09-03T00:02:54.952Z,51.95
2022-09-03T00:05:26.996Z,52.13
2022-09-03T00:08:03.948Z,52.31
2022-09-03T00:10:45.486Z,51.98
2022-09-03T00:13:21.003Z,51.84
2022-09-03T00:15:50.478Z,51.84
2022-09-03T00:18:22.284Z,52.38
2022-09-03T00:20:57.541Z,52.13
2022-09-03T00:23:32.879Z,52.48
2022-09-03T00:26:19.004Z,52.52
2022-09-03T00:29:00.924Z,52.30
2022-09-03T00:31:37.509Z,52.30
2022-09-03T00:34:16.736Z,52.34
2022-09-03T00:36:46.551Z,52.48
2022-09-03T00:39:16.562Z,52.29
2022-09-03T00:41:59.553Z,52.62
2022-09-03T00:45:01.893Z,53.01
2022-09-03T00:47:41.982Z,53.02
2022-09-03T00:50:16.337Z,52.69
2022-09-03T00:52:55.754Z,52.24
2022-09-03T00:55:36.850Z,52.58
2022-09-03T00:58:37.799Z,52.79
2022-09-03T01:01:16.148Z,52.92
2022-09-03T01:03:58.683Z,52.41
2022-09-03T01:06:38.084Z,52.50
2022-09-03T01:09:24.819Z,52.77
2022-09-03T01:12:02.301Z,52.54
2022-09-03T01:14:43.222Z,52.98
2022-09-03T01:17:31.563Z,54.15
2022-09-03T01:20:15.183Z,53.53
2022-09-03T01:23:36.369Z,53.20
2022-09-03T01:26:28.646Z,54.19
2022-09-03T01:29:07.550Z,52.87
2022-09-03T01:31:42.348Z,52.56
2022-09-03T01:34:23.128Z,53.33
2022-09-03T01:37:02.385Z,52.77
2022-09-03T01:39:40.101Z,52.83
2022-09-03T01:42:24.718Z,52.81
2022-09-03T01:45:14.622Z,54.80
2022-09-03T01:47:58.836Z,52.92
2022-09-03T01:50:40.322Z,52.90
2022-09-03T01:53:14.584Z,52.71
2022-09-03T01:55:56.944Z,54.76
2022-09-03T01:58:34.427Z,53.25
2022-09-03T02:01:15.012Z,52.73
2022-09-03T02:03:49.934Z,52.85
2022-09-03T02:06:20.792Z,52.72
2022-09-03T02:08:48.732Z,53.19
2022-09-03T02:11:19.731Z,52.88
2022-09-03T02:13:57.613Z,52.99
2022-09-03T02:16:32.689Z,53.01
2022-09-03T02:19:04.215Z,53.02
2022-09-03T02:21:40.296Z,53.05
2022-09-03T02:24:09.929Z,52.97
2022-09-03T02:26:41.539Z,53.00
2022-09-03T02:29:09.622Z,52.97
2022-09-03T02:31:38.927Z,52.82
2022-09-03T02:34:10.365Z,52.93
2022-09-03T02:36:42.093Z,52.79
2022-09-03T02:39:10.368Z,52.94
2022-09-03T02:41:38.411Z,53.14
2022-09-03T02:44:13.965Z,53.34
2022-09-03T02:46:51.391Z,53.39
2022-09-03T02:49:19.311Z,53.09
2022-09-03T02:51:49.738Z,53.33
2022-09-03T02:54:21.060Z,53.25
2022-09-03T02:56:49.894Z,53.34
2022-09-03T02:59:18.346Z,53.23
2022-09-03T03:01:53.820Z,53.26
2022-09-03T03:04:30.624Z,53.35
2022-09-03T03:06:58.747Z,53.43
2022-09-03T03:09:26.685Z,53.23
2022-09-03T03:11:55.467Z,53.31
2022-09-03T03:14:24.165Z,53.40
2022-09-03T03:16:53.544Z,53.36
2022-09-03T03:19:21.620Z,53.16
2022-09-03T03:21:49.520Z,53.49
2022-09-03T03:24:24.646Z,53.40
2022-09-03T03:26:58.050Z,53.54
2022-09-03T03:29:35.815Z,53.28
2022-09-03T03:32:05.336Z,53.70
2022-09-03T03:34:33.395Z,53.49
2022-09-03T03:37:04.589Z,53.61
2022-09-03T03:39:36.393Z,53.90
2022-09-03T03:42:04.624Z,53.63
2022-09-03T03:44:32.959Z,53.75
2022-09-03T03:47:01.121Z,53.88
2022-09-03T03:49:35.679Z,53.85
2022-09-03T03:52:10.195Z,53.77
2022-09-03T03:54:38.279Z,53.69
2022-09-03T03:57:06.321Z,54.01
2022-09-03T03:59:34.936Z,53.85
2022-09-03T04:02:03.076Z,53.55
2022-09-03T04:04:47.343Z,54.08
2022-09-03T04:07:15.291Z,54.14
2022-09-03T04:09:47.276Z,54.22
2022-09-03T04:12:15.236Z,54.28
2022-09-03T04:14:50.415Z,54.29
2022-09-03T04:17:22.074Z,54.30
2022-09-03T04:19:53.706Z,56.96
2022-09-03T04:22:21.704Z,54.28
2022-09-03T04:24:52.130Z,54.15
2022-09-03T04:27:25.101Z,53.96
2022-09-03T04:29:52.978Z,54.23
2022-09-03T04:32:42.316Z,54.19
2022-09-03T04:35:19.012Z,54.51
2022-09-03T04:37:46.874Z,54.46
2022-09-03T04:40:17.815Z,54.26
2022-09-03T04:42:48.598Z,54.51
2022-09-03T04:45:19.597Z,54.49
2022-09-03T04:48:05.508Z,54.71
2022-09-03T04:50:37.772Z,54.59
2022-09-03T04:53:08.160Z,54.42
2022-09-03T04:55:39.549Z,54.33
2022-09-03T04:58:08.718Z,54.23
2022-09-03T05:00:37.856Z,54.35
2022-09-03T05:03:06.369Z,54.15
2022-09-03T05:05:53.379Z,54.41
2022-09-03T05:08:21.743Z,54.18
2022-09-03T05:10:49.773Z,54.27
2022-09-03T05:13:22.979Z,54.38
2022-09-03T05:15:50.903Z,54.45
2022-09-03T05:18:21.703Z,54.38
2022-09-03T05:21:01.687Z,54.55
2022-09-03T05:23:36.967Z,54.48
2022-09-03T05:26:10.808Z,54.42
2022-09-03T05:28:40.708Z,54.55
2022-09-03T05:31:10.852Z,54.19
2022-09-03T05:33:42.882Z,54.15
2022-09-03T05:36:14.053Z,54.19
2022-09-03T05:38:42.021Z,53.13
2022-09-03T05:41:14.619Z,50.08
2022-09-03T05:43:43.340Z,48.23
2022-09-03T05:46:13.268Z,47.27
2022-09-03T05:48:43.093Z,46.94
2022-09-03T05:51:17.006Z,46.84
2022-09-03T05:53:46.722Z,47.38
2022-09-03T05:56:17.972Z,48.08
2022-09-03T05:58:48.369Z,49.02
2022-09-03T06:01:18.256Z,49.58
2022-09-03T06:03:48.065Z,50.12
2022-09-03T06:06:17.339Z,50.20
2022-09-03T06:08:45.399Z,50.30
2022-09-03T06:11:14.045Z,50.55
2022-09-03T06:13:42.060Z,50.77
2022-09-03T06:16:11.483Z,50.82
2022-09-03T06:18:39.594Z,50.69
2022-09-03T06:21:08.928Z,50.87
2022-09-03T06:23:38.186Z,51.15
2022-09-03T06:26:11.385Z,50.64
2022-09-03T06:28:44.484Z,51.02
2022-09-03T06:31:14.522Z,51.06
2022-09-03T06:33:45.936Z,51.04
2022-09-03T06:36:25.769Z,51.52
2022-09-03T06:38:56.611Z,51.31
2022-09-03T06:41:26.919Z,51.73
2022-09-03T06:43:57.294Z,51.59
2022-09-03T06:46:25.330Z,52.09
2022-09-03T06:48:58.112Z,52.20
2022-09-03T06:51:30.976Z,52.27
2022-09-03T06:54:04.305Z,52.33
2022-09-03T06:56:38.869Z,52.30
2022-09-03T06:59:10.999Z,52.53
2022-09-03T07:01:45.286Z,51.93
2022-09-03T07:04:16.268Z,52.26
2022-09-03T07:06:48.587Z,52.04
2022-09-03T07:09:21.038Z,52.21
2022-09-03T07:11:49.466Z,52.40
2022-09-03T07:14:18.733Z,52.48
2022-09-03T07:16:47.601Z,51.78
2022-09-03T07:19:27.374Z,51.85
2022-09-03T07:21:55.264Z,51.92
2022-09-03T07:24:32.752Z,52.31
2022-09-03T07:27:01.515Z,52.05
2022-09-03T07:29:29.567Z,51.66
2022-09-03T07:31:59.248Z,51.96
2022-09-03T07:34:30.429Z,51.90
2022-09-03T07:36:58.649Z,51.55
2022-09-03T07:39:26.828Z,51.20
2022-09-03T07:42:03.638Z,51.46
2022-09-03T07:44:31.578Z,51.05
2022-09-03T07:47:00.708Z,51.12
2022-09-03T07:49:31.720Z,51.32
2022-09-03T07:51:59.894Z,50.81
2022-09-03T07:54:28.527Z,50.62
2022-09-03T07:56:58.609Z,50.63
2022-09-03T07:59:26.739Z,50.52
2022-09-03T08:01:54.856Z,50.72
2022-09-03T08:04:23.096Z,50.53
2022-09-03T08:06:55.513Z,50.44
2022-09-03T08:09:23.696Z,50.43
2022-09-03T08:11:51.565Z,50.43
2022-09-03T08:14:21.594Z,50.30
2022-09-03T08:16:49.560Z,50.04
2022-09-03T08:19:18.333Z,50.37
2022-09-03T08:21:46.916Z,50.17
2022-09-03T08:24:17.149Z,49.94
2022-09-03T08:26:51.432Z,49.97
2022-09-03T08:29:24.562Z,49.72
2022-09-03T08:31:52.480Z,49.15
2022-09-03T08:34:21.423Z,49.40
2022-09-03T08:36:50.512Z,49.39
2022-09-03T08:39:18.553Z,49.48
2022-09-03T08:42:23.754Z,49.46
2022-09-03T08:44:58.607Z,49.11
2022-09-03T08:47:29.490Z,48.47
2022-09-03T08:50:02.492Z,49.26
2022-09-03T08:52:33.800Z,49.18
2022-09-03T08:55:14.833Z,49.00
2022-09-03T08:57:49.632Z,48.89
2022-09-03T09:00:19.878Z,48.84
2022-09-03T09:02:59.419Z,48.72
2022-09-03T09:05:42.885Z,48.73
2022-09-03T09:08:25.703Z,48.61
2022-09-03T09:11:07.066Z,47.91
2022-09-03T09:13:43.431Z,48.57
2022-09-03T09:16:20.275Z,48.58
2022-09-03T09:19:11.657Z,47.00
2022-09-03T09:21:46.229Z,48.17
2022-09-03T09:24:23.534Z,47.48
2022-09-03T09:27:00.945Z,47.48
2022-09-03T09:29:32.928Z,47.70
2022-09-03T09:32:04.637Z,47.89
2022-09-03T09:34:35.586Z,47.47
2022-09-03T09:37:07.423Z,47.33
2022-09-03T09:39:35.638Z,47.12
2022-09-03T09:42:09.513Z,47.19
2022-09-03T09:44:38.693Z,47.28
2022-09-03T09:47:24.840Z,46.37
2022-09-03T09:49:58.116Z,46.90
2022-09-03T09:52:31.503Z,46.98
2022-09-03T09:55:09.264Z,46.05
2022-09-03T09:57:43.426Z,45.42
2022-09-03T10:00:37.795Z,42.90
2022-09-03T10:03:13.824Z,44.74
2022-09-03T10:05:43.649Z,46.16
2022-09-03T10:08:26.382Z,45.90
2022-09-03T10:10:54.373Z,45.87
2022-09-03T10:13:27.426Z,46.02
2022-09-03T10:16:04.733Z,45.90
2022-09-03T10:18:44.583Z,44.05
2022-09-03T10:21:17.197Z,45.66
2022-09-03T10:23:56.593Z,45.55
2022-09-03T10:26:32.467Z,45.81
2022-09-03T10:29:03.879Z,45.24
2022-09-03T10:31:46.454Z,45.00
2022-09-03T10:34:33.308Z,42.81
2022-09-03T10:37:10.285Z,45.04
2022-09-03T10:39:52.467Z,45.22
2022-09-03T10:42:35.766Z,45.06
2022-09-03T10:45:23.470Z,44.28
2022-09-03T10:48:22.750Z,42.78
2022-09-03T10:50:57.359Z,45.04
2022-09-03T10:53:37.642Z,44.44
2022-09-03T10:56:12.979Z,44.75
2022-09-03T10:58:57.145Z,42.39
2022-09-03T11:01:52.635Z,43.76
2022-09-03T11:04:36.384Z,44.49
2022-09-03T11:07:11.047Z,44.54
2022-09-03T11:09:43.151Z,44.39
2022-09-03T11:12:17.743Z,44.29
2022-09-03T11:14:50.175Z,44.10
2022-09-03T11:17:25.201Z,44.20
2022-09-03T11:20:01.158Z,43.17
2022-09-03T11:22:32.093Z,43.95
2022-09-03T11:25:05.237Z,44.36
2022-09-03T11:27:50.655Z,43.75
2022-09-03T11:30:29.996Z,43.65
2022-09-03T11:33:02.048Z,44.25
2022-09-03T11:35:41.740Z,43.21
2022-09-03T11:38:24.766Z,41.48
2022-09-03T11:41:01.272Z,44.20
2022-09-03T11:43:34.657Z,44.10
2022-09-03T11:46:11.918Z,43.97
2022-09-03T11:48:45.283Z,44.10
2022-09-03T11:51:33.297Z,42.67
2022-09-03T11:54:04.116Z,43.91
2022-09-03T11:56:33.434Z,44.08
2022-09-03T11:59:17.359Z,44.25
2022-09-03T12:01:53.376Z,43.75
2022-09-03T12:04:25.557Z,44.17
2022-09-03T12:07:31.082Z,43.45
2022-09-03T12:10:20.730Z,43.11
2022-09-03T12:12:55.930Z,43.73
2022-09-03T12:15:41.901Z,43.27
2022-09-03T12:18:20.147Z,43.87
2022-09-03T12:20:51.011Z,44.19
2022-09-03T12:23:30.768Z,42.14
2022-09-03T12:26:04.084Z,43.57
2022-09-03T12:28:36.258Z,43.75
2022-09-03T12:31:21.508Z,43.57
2022-09-03T12:33:54.900Z,43.03
2022-09-03T12:36:27.428Z,43.18
2022-09-03T12:39:12.783Z,43.41
2022-09-03T12:41:56.930Z,39.88
2022-09-03T12:44:42.816Z,42.60
2022-09-03T12:50:08.098Z,43.27
2022-09-03T12:52:41.225Z,43.32
2022-09-03T12:55:22.467Z,43.04
2022-09-03T12:58:02.203Z,43.25
2022-09-03T13:00:33.888Z,43.28
2022-09-03T13:03:26.106Z,43.06
2022-09-03T13:05:58.112Z,43.14
2022-09-03T13:08:31.157Z,41.43
2022-09-03T13:11:01.051Z,42.95
2022-09-03T13:13:37.903Z,41.45
2022-09-03T13:16:57.252Z,38.86
2022-09-03T13:19:36.250Z,43.04
2022-09-03T13:22:12.954Z,43.16
2022-09-03T13:25:04.024Z,42.67
2022-09-03T13:27:40.249Z,43.12
2022-09-03T13:30:13.720Z,43.08
2022-09-03T13:33:00.868Z,39.15
2022-09-03T13:35:38.425Z,41.00
2022-09-03T13:38:19.837Z,42.52
2022-09-03T13:40:53.751Z,42.69
2022-09-03T13:43:27.193Z,34.38
2022-09-03T13:46:01.155Z,43.06
2022-09-03T13:48:51.616Z,43.32
2022-09-03T13:51:30.860Z,42.28
2022-09-03T13:54:09.909Z,41.73
2022-09-03T13:56:55.233Z,42.85
2022-09-03T13:59:31.159Z,42.86
2022-09-03T14:02:11.860Z,42.70
2022-09-03T14:04:52.902Z,43.18
2022-09-03T14:07:25.458Z,42.89
2022-09-03T14:10:09.159Z,41.75
2022-09-03T14:12:46.691Z,43.13
2022-09-03T14:15:21.707Z,42.23
2022-09-03T14:17:58.652Z,42.34
2022-09-03T14:20:45.629Z,36.97
2022-09-03T14:23:28.050Z,40.69
2022-09-03T14:26:03.809Z,42.48
2022-09-03T14:28:35.478Z,42.22
2022-09-03T14:31:14.237Z,41.36
2022-09-03T14:33:56.407Z,41.16
2022-09-03T14:36:33.496Z,42.47
2022-09-03T14:39:30.842Z,41.33
2022-09-03T14:42:44.696Z,39.37
2022-09-03T14:45:36.810Z,38.05
2022-09-03T14:48:36.780Z,41.28
2022-09-03T14:51:25.043Z,41.66
2022-09-03T14:54:23.865Z,37.84
2022-09-03T14:57:13.049Z,41.63
2022-09-03T15:00:10.366Z,39.60
2022-09-03T15:06:42.615Z,40.43
2022-09-03T15:09:40.148Z,41.66
2022-09-03T15:12:17.479Z,41.61
2022-09-03T15:14:54.205Z,42.09
2022-09-03T15:17:37.381Z,42.06
2022-09-03T15:20:27.461Z,41.19
2022-09-03T15:23:18.371Z,42.17
2022-09-03T15:26:17.561Z,42.22
2022-09-03T15:29:12.454Z,40.48
2022-09-03T15:31:59.134Z,40.35
2022-09-03T15:34:43.890Z,42.33
2022-09-03T15:37:18.400Z,42.75
2022-09-03T15:40:03.667Z,37.48
2022-09-03T15:42:34.609Z,42.68
2022-09-03T15:45:15.911Z,42.83
2022-09-03T15:47:55.262Z,42.12
2022-09-03T15:50:34.812Z,41.89
2022-09-03T15:53:14.111Z,42.68
2022-09-03T15:56:13.460Z,41.04
2022-09-03T15:58:52.953Z,42.43
2022-09-03T16:01:36.030Z,38.46
2022-09-03T16:04:13.761Z,42.49
2022-09-03T16:06:55.084Z,39.54
2022-09-03T16:09:44.113Z,39.71
2022-09-03T16:12:31.961Z,42.08
2022-09-03T16:15:04.917Z,42.60
2022-09-03T16:17:39.580Z,42.47
2022-09-03T16:20:15.637Z,43.04
2022-09-03T16:22:50.357Z,41.86
2022-09-03T16:25:24.238Z,42.38
2022-09-03T16:27:57.289Z,36.59
2022-09-03T16:30:46.080Z,42.20
2022-09-03T16:33:27.315Z,43.10
2022-09-03T16:36:08.041Z,42.57
2022-09-03T16:38:49.353Z,42.92
2022-09-03T16:41:28.968Z,43.17
2022-09-03T16:44:14.240Z,42.92
2022-09-03T16:46:52.231Z,43.39
2022-09-03T16:49:39.691Z,43.26
2022-09-03T16:52:18.489Z,43.36
2022-09-03T16:55:12.142Z,41.84
2022-09-03T16:58:09.451Z,42.96
2022-09-03T17:00:52.125Z,42.94
2022-09-03T17:03:42.807Z,43.03
2022-09-03T17:06:41.294Z,40.84
2022-09-03T17:09:28.644Z,42.93
2022-09-03T17:12:06.246Z,43.21
2022-09-03T17:15:03.541Z,43.09
2022-09-03T17:17:49.829Z,43.28
2022-09-03T17:20:38.279Z,43.21
2022-09-03T17:23:18.495Z,43.41
2022-09-03T17:25:55.965Z,43.73
2022-09-03T17:28:35.461Z,43.55
2022-09-03T17:31:12.764Z,43.69
2022-09-03T17:33:58.517Z,43.52
2022-09-03T17:36:28.249Z,43.92
2022-09-03T17:39:25.564Z,43.65
2022-09-03T17:41:55.103Z,44.01
2022-09-03T17:44:41.942Z,43.93
2022-09-03T17:47:39.580Z,43.78
2022-09-03T17:50:18.229Z,44.24
2022-09-03T17:52:50.724Z,44.23
2022-09-03T17:55:30.872Z,44.23
2022-09-03T17:58:10.327Z,44.04
2022-09-03T18:00:46.094Z,44.39
2022-09-03T18:03:20.845Z,44.33
2022-09-03T18:06:01.146Z,44.62
2022-09-03T18:08:37.434Z,44.33
2022-09-03T18:11:13.828Z,44.52
2022-09-03T18:13:51.542Z,44.10
2022-09-03T18:16:27.502Z,44.18
2022-09-03T18:19:03.834Z,44.28
2022-09-03T18:21:56.048Z,44.30
2022-09-03T18:24:51.127Z,44.62
2022-09-03T18:27:41.046Z,44.48
2022-09-03T18:30:34.810Z,44.64
2022-09-03T18:33:24.192Z,44.58
2022-09-03T18:36:09.947Z,44.47
2022-09-03T18:38:58.646Z,44.47
2022-09-03T18:42:14.851Z,42.05
2022-09-03T18:45:23.255Z,43.13
2022-09-03T18:48:21.355Z,44.10
2022-09-03T18:51:17.434Z,44.37
2022-09-03T18:54:24.419Z,44.03
2022-09-03T18:57:12.726Z,44.49
2022-09-03T19:00:18.095Z,44.32
2022-09-03T19:03:15.752Z,44.54
2022-09-03T19:06:18.603Z,44.33
2022-09-03T19:09:14.501Z,44.88
2022-09-03T19:12:22.491Z,44.25
2022-09-03T19:15:15.440Z,45.14
2022-09-03T19:18:22.575Z,44.79
2022-09-03T19:21:16.894Z,45.20
2022-09-03T19:24:07.812Z,45.26
2022-09-03T19:27:03.291Z,45.40
2022-09-03T19:30:16.213Z,45.47
2022-09-03T19:33:18.684Z,45.34
2022-09-03T19:36:13.165Z,45.71
2022-09-03T19:39:24.347Z,45.50
2022-09-03T19:42:20.552Z,45.62
2022-09-03T19:45:22.004Z,45.43
2022-09-03T19:48:20.730Z,45.48
2022-09-03T19:51:24.425Z,45.50
2022-09-03T19:54:20.128Z,45.74
2022-09-03T19:57:06.950Z,45.96
2022-09-03T19:59:59.082Z,46.10
2022-09-03T20:02:47.939Z,46.00
2022-09-03T20:05:40.202Z,46.23
2022-09-03T20:08:32.432Z,46.34
2022-09-03T20:11:03.441Z,46.20
2022-09-03T20:13:56.492Z,46.34
2022-09-03T20:16:31.328Z,46.28
2022-09-03T20:19:07.721Z,46.33
2022-09-03T20:21:44.891Z,46.31
2022-09-03T20:24:28.339Z,46.44
2022-09-03T20:27:10.339Z,46.62
2022-09-03T20:29:55.951Z,46.83
2022-09-03T20:32:44.078Z,46.60
2022-09-03T20:35:23.493Z,46.79
2022-09-03T20:38:01.017Z,47.08
2022-09-03T20:40:46.578Z,46.71
2022-09-03T20:43:34.925Z,46.91
2022-09-03T20:46:45.438Z,46.94
2022-09-03T20:49:24.755Z,47.07
2022-09-03T20:52:07.173Z,47.04
2022-09-03T20:54:48.579Z,47.14
2022-09-03T20:57:34.718Z,47.20
2022-09-03T21:00:10.624Z,47.27
2022-09-03T21:02:53.470Z,47.33
2022-09-03T21:05:34.687Z,47.51
2022-09-03T21:08:14.031Z,47.71
2022-09-03T21:10:53.705Z,47.53
2022-09-03T21:13:38.710Z,47.47
2022-09-03T21:16:21.374Z,47.39
2022-09-03T21:19:00.151Z,47.56
2022-09-03T21:21:46.186Z,47.45
2022-09-03T21:24:21.020Z,47.76
2022-09-03T21:26:58.700Z,47.83
2022-09-03T21:29:41.754Z,47.77
2022-09-03T21:38:08.035Z,47.71
2022-09-03T21:40:41.640Z,47.62
2022-09-03T21:43:18.536Z,47.65
2022-09-03T21:45:54.734Z,47.82
2022-09-03T21:48:36.447Z,47.92
2022-09-03T21:51:11.425Z,47.92
2022-09-03T21:53:45.275Z,47.96
2022-09-03T21:56:37.712Z,48.35
2022-09-03T21:59:13.235Z,48.23
2022-09-03T22:02:07.249Z,48.02
2022-09-03T22:04:37.010Z,48.22
2022-09-03T22:07:15.359Z,48.22
2022-09-03T22:09:51.423Z,48.53
2022-09-03T22:12:30.991Z,48.38
2022-09-03T22:15:25.422Z,48.38
2022-09-03T22:18:00.950Z,48.27
2022-09-03T22:20:30.341Z,48.55
2022-09-03T22:23:13.358Z,48.57
2022-09-03T22:25:50.114Z,48.62
2022-09-03T22:28:31.175Z,48.77
2022-09-03T22:31:08.271Z,48.82
2022-09-03T22:33:43.569Z,48.81
2022-09-03T22:36:18.143Z,48.83
2022-09-03T22:39:11.754Z,49.14
2022-09-03T22:41:57.574Z,49.12
2022-09-03T22:44:51.147Z,48.71
2022-09-03T22:47:30.863Z,49.00
2022-09-03T22:50:23.390Z,49.33
2022-09-03T22:53:11.788Z,49.13
2022-09-03T22:55:46.463Z,48.86
2022-09-03T22:58:21.330Z,49.23
2022-09-03T23:01:11.637Z,49.58
2022-09-03T23:03:42.989Z,49.30
2022-09-03T23:06:29.079Z,49.47
2022-09-03T23:09:02.507Z,49.56
2022-09-03T23:14:30.907Z,49.19
2022-09-03T23:17:07.440Z,49.38
2022-09-03T23:19:41.106Z,49.58
2022-09-03T23:22:13.553Z,49.71
2022-09-03T23:24:47.995Z,49.68
2022-09-03T23:27:21.509Z,49.59
2022-09-03T23:29:53.459Z,49.73
2022-09-03T23:32:22.034Z,49.67
2022-09-03T23:34:57.128Z,49.41
2022-09-03T23:37:38.012Z,49.74
2022-09-03T23:40:26.096Z,49.88
2022-09-03T23:43:29.755Z,50.01
2022-09-03T23:46:10.146Z,49.54
2022-09-03T23:48:55.288Z,50.19
2022-09-03T23:51:32.809Z,49.64
2022-09-03T23:54:10.241Z,49.75
2022-09-03T23:57:10.089Z,50.33
